SAWU/RZA METAR and TAF weather

Enter ICAO airport designator
Station Type Date Time Source
SAWU METAR 2019/02/22 17:00 UTC NOAA

SAWU 221700Z 29018KT 9999 SCT030 SCT100 BKN200 12/06 Q1011


Station Type Date Time Source
SAWU Decoded METAR 2019/02/22 17:00 UTC NOAA

Santa Cruz Aerodrome, Argentina (SAWU) 50-01S 068-34W 111M
Feb 22, 2019 - 12:00 PM EST / 2019.02.22 1700 UTC
Wind: from the WNW (290 degrees) at 21 MPH (18 KT):0
Visibility: greater than 7 mile(s):0
Sky conditions: mostly cloudy
Temperature: 53 F (12 C)
Dew Point: 42 F (6 C)
Relative Humidity: 66%
Pressure (altimeter): 29.85 in. Hg (1011 hPa)
ob: SAWU 221700Z 29018KT 9999 SCT030 SCT100 BKN200 12/06 Q1011
cycle: 17

Station Type Date Time Source
SAWU TAF UTC NOAA

Error!

Example: see airport list